Time;durP1;ratioP1;P1;durP2;ratioP2;P2;SDS_P1;SDS_P2;PMS_P1;PMS_P2;Temp;Humidity;BMP_temperature;BMP_pressure;BME280_temperature;BME280_humidity;BME280_pressure;Samples;Min_cycle;Max_cycle;Signal;HPM_P1;HPM_P2
2022/01/07 00:00:06;;;;;;;;;;;8.50;79.30;;;;;;5003316;28;87157;-43
2022/01/07 00:02:32;;;;;;;;;;;8.50;79.20;;;;;;5003053;28;86973;-43
2022/01/07 00:04:57;;;;;;;;;;;8.60;79.20;;;;;;5002602;28;88705;-43
2022/01/07 00:07:23;;;;;;;;;;;8.50;79.20;;;;;;5003028;28;87248;-43
2022/01/07 00:09:48;;;;;;;;;;;8.50;79.20;;;;;;5002970;28;88904;-43
2022/01/07 00:12:17;;;;;;;;;;;8.50;79.30;;;;;;5004046;28;89351;-43
2022/01/07 00:14:43;;;;;;;;;;;8.50;80.00;;;;;;5006887;28;86393;-43
2022/01/07 00:17:08;;;;;;;;;;;8.50;79.30;;;;;;5009097;28;88552;-42
2022/01/07 00:19:34;;;;;;;;;;;8.40;79.20;;;;;;5006269;28;87190;-42
2022/01/07 00:22:00;;;;;;;;;;;8.50;79.40;;;;;;5005603;28;89067;-43
2022/01/07 00:24:25;;;;;;;;;;;8.40;79.40;;;;;;5006095;28;89375;-43
2022/01/07 00:26:51;;;;;;;;;;;8.40;79.40;;;;;;5005954;28;87264;-42
2022/01/07 00:29:16;;;;;;;;;;;8.40;79.40;;;;;;5006389;28;89132;-42
2022/01/07 00:31:42;;;;;;;;;;;8.40;79.30;;;;;;5005923;28;88640;-43
2022/01/07 00:34:07;;;;;;;;;;;8.40;79.50;;;;;;5006227;28;87233;-43
2022/01/07 00:36:33;;;;;;;;;;;8.40;79.40;;;;;;5008743;28;89055;-43
2022/01/07 00:38:58;;;;;;;;;;;8.40;79.30;;;;;;5006579;28;86478;-42
2022/01/07 00:41:24;;;;;;;;;;;8.30;79.30;;;;;;5005805;28;88819;-42
2022/01/07 00:43:50;;;;;;;;;;;8.30;79.40;;;;;;5005739;28;89267;-42
2022/01/07 00:46:17;;;;;;;;;;;8.30;79.40;;;;;;5004059;28;88178;-42
2022/01/07 00:48:43;;;;;;;;;;;8.30;79.40;;;;;;5006067;28;90320;-43
2022/01/07 00:51:09;;;;;;;;;;;8.30;79.40;;;;;;5005648;28;90008;-43
2022/01/07 00:53:34;;;;;;;;;;;8.20;79.30;;;;;;5005733;28;87077;-43
2022/01/07 00:56:00;;;;;;;;;;;8.20;79.30;;;;;;5005693;28;89038;-43
2022/01/07 00:58:25;;;;;;;;;;;8.20;79.30;;;;;;5008222;28;89651;-42
2022/01/07 01:00:51;;;;;;;;;;;8.20;79.30;;;;;;5006038;28;87997;-43
2022/01/07 01:03:16;;;;;;;;;;;8.20;79.30;;;;;;5005766;28;88744;-42
2022/01/07 01:05:44;;;;;;;;;;;8.20;79.30;;;;;;5005554;28;87186;-43
2022/01/07 01:08:10;;;;;;;;;;;8.20;79.40;;;;;;5005601;28;88860;-42
2022/01/07 01:10:36;;;;;;;;;;;8.20;79.50;;;;;;5004607;28;90749;-43
2022/01/07 01:13:01;;;;;;;;;;;8.10;79.50;;;;;;5005226;28;87249;-42
2022/01/07 01:15:27;;;;;;;;;;;8.10;79.50;;;;;;5005694;28;89250;-42
2022/01/07 01:17:54;;;;;;;;;;;8.10;79.40;;;;;;5005114;28;89744;-43
2022/01/07 01:20:20;;;;;;;;;;;8.10;79.40;;;;;;5008398;28;87126;-43
2022/01/07 01:22:46;;;;;;;;;;;8.10;79.40;;;;;;5004869;28;89429;-43
2022/01/07 01:25:11;;;;;;;;;;;8.10;79.50;;;;;;5004864;28;86907;-43
2022/01/07 01:27:37;;;;;;;;;;;8.10;79.60;;;;;;5005456;28;88736;-43
2022/01/07 01:30:04;;;;;;;;;;;8.00;79.50;;;;;;5005122;28;89721;-43
2022/01/07 01:32:30;;;;;;;;;;;8.00;79.40;;;;;;5005290;28;86957;-42
2022/01/07 01:34:56;;;;;;;;;;;8.00;79.50;;;;;;5004740;28;89087;-43
2022/01/07 01:37:21;;;;;;;;;;;8.00;79.50;;;;;;5004897;28;89313;-42
2022/01/07 01:39:47;;;;;;;;;;;8.00;79.40;;;;;;5005065;28;87196;-43
2022/01/07 01:42:12;;;;;;;;;;;8.00;79.50;;;;;;5007356;28;89019;-42
2022/01/07 01:44:38;;;;;;;;;;;8.00;79.50;;;;;;5005010;28;87177;-43
2022/01/07 01:47:03;;;;;;;;;;;8.00;79.50;;;;;;5004960;28;89392;-43
2022/01/07 01:49:29;;;;;;;;;;;8.00;79.40;;;;;;5004655;28;89803;-43
2022/01/07 01:51:55;;;;;;;;;;;8.00;79.50;;;;;;5005323;28;86266;-43
2022/01/07 01:54:20;;;;;;;;;;;7.90;79.50;;;;;;5005070;28;88423;-42
2022/01/07 01:56:46;;;;;;;;;;;7.90;79.40;;;;;;5004530;28;89348;-43
2022/01/07 01:59:11;;;;;;;;;;;7.90;79.40;;;;;;5004074;28;88094;-43
2022/01/07 02:01:38;;;;;;;;;;;7.90;79.40;;;;;;5004752;28;89986;-43
2022/01/07 02:04:04;;;;;;;;;;;7.90;79.60;;;;;;5007393;28;88530;-43
2022/01/07 02:06:30;;;;;;;;;;;7.90;79.50;;;;;;5004867;28;89242;-43
2022/01/07 02:08:55;;;;;;;;;;;7.90;79.40;;;;;;5004414;28;89076;-43
2022/01/07 02:11:21;;;;;;;;;;;7.80;79.60;;;;;;5004662;28;87172;-43
2022/01/07 02:13:48;;;;;;;;;;;7.80;79.60;;;;;;5004641;28;89203;-43
2022/01/07 02:16:14;;;;;;;;;;;7.70;79.80;;;;;;5004975;28;88696;-42
2022/01/07 02:18:41;;;;;;;;;;;7.80;79.60;;;;;;5004612;28;87135;-42
2022/01/07 02:21:07;;;;;;;;;;;7.80;79.60;;;;;;5004437;28;88955;-42
2022/01/07 02:23:32;;;;;;;;;;;7.80;79.60;;;;;;5003452;28;90276;-43
2022/01/07 02:25:59;;;;;;;;;;;7.70;79.40;;;;;;5006304;28;86928;-42
2022/01/07 02:28:25;;;;;;;;;;;7.70;79.60;;;;;;5004062;28;89484;-43
2022/01/07 02:30:51;;;;;;;;;;;7.70;79.70;;;;;;5004288;28;87082;-43
2022/01/07 02:33:16;;;;;;;;;;;7.70;79.70;;;;;;5004427;28;87691;-43
2022/01/07 02:35:45;;;;;;;;;;;7.70;79.70;;;;;;5003946;28;88728;-43
2022/01/07 02:38:13;;;;;;;;;;;7.70;79.70;;;;;;5004327;28;87020;-42
2022/01/07 02:40:38;;;;;;;;;;;7.70;79.60;;;;;;5004660;28;89090;-43
2022/01/07 02:43:04;;;;;;;;;;;7.60;79.80;;;;;;5003937;28;87291;-43
2022/01/07 02:45:29;;;;;;;;;;;7.60;79.60;;;;;;5007134;28;86994;-42
2022/01/07 02:47:57;;;;;;;;;;;7.70;79.80;;;;;;5003118;28;89767;-42
2022/01/07 02:50:25;;;;;;;;;;;7.60;79.90;;;;;;5004054;28;87136;-43
2022/01/07 02:52:51;;;;;;;;;;;7.60;79.90;;;;;;5004038;28;88877;-42
2022/01/07 02:55:16;;;;;;;;;;;7.50;79.90;;;;;;5003348;28;90035;-43
2022/01/07 02:57:42;;;;;;;;;;;7.60;79.90;;;;;;5003989;28;87163;-43
2022/01/07 03:00:08;;;;;;;;;;;7.60;79.80;;;;;;5003972;28;87645;-42
2022/01/07 03:02:33;;;;;;;;;;;7.60;79.80;;;;;;5003648;28;89552;-43
2022/01/07 03:04:59;;;;;;;;;;;7.50;79.70;;;;;;5004450;28;86262;-43
2022/01/07 03:07:25;;;;;;;;;;;7.50;79.80;;;;;;5006370;28;88091;-42
2022/01/07 03:09:50;;;;;;;;;;;7.50;79.90;;;;;;5003514;28;87253;-43
2022/01/07 03:12:16;;;;;;;;;;;7.50;80.00;;;;;;5003110;28;88892;-42
2022/01/07 03:14:41;;;;;;;;;;;7.50;79.90;;;;;;5003320;28;88240;-42
2022/01/07 03:17:07;;;;;;;;;;;7.50;79.70;;;;;;5003706;28;87067;-43
2022/01/07 03:19:32;;;;;;;;;;;7.50;79.80;;;;;;5003566;28;88951;-43
2022/01/07 03:21:58;;;;;;;;;;;7.40;79.90;;;;;;5003315;28;89931;-42
2022/01/07 03:24:23;;;;;;;;;;;7.50;80.00;;;;;;5003438;28;87164;-42
2022/01/07 03:26:49;;;;;;;;;;;7.50;79.70;;;;;;5003008;28;88955;-43
2022/01/07 03:29:14;;;;;;;;;;;7.50;79.80;;;;;;5006590;28;89007;-43
2022/01/07 03:31:40;;;;;;;;;;;7.50;79.70;;;;;;5003575;28;88648;-43
2022/01/07 03:34:05;;;;;;;;;;;7.40;79.80;;;;;;5003038;28;89976;-42
2022/01/07 03:36:31;;;;;;;;;;;7.50;79.70;;;;;;5003218;28;88235;-42
2022/01/07 03:38:57;;;;;;;;;;;7.40;79.60;;;;;;5003194;28;89821;-43
2022/01/07 03:41:23;;;;;;;;;;;7.40;79.80;;;;;;5002609;28;89576;-43
2022/01/07 03:43:48;;;;;;;;;;;7.40;79.70;;;;;;5003250;28;87083;-43
2022/01/07 03:46:14;;;;;;;;;;;7.40;79.70;;;;;;5002937;28;88070;-42
2022/01/07 03:48:39;;;;;;;;;;;7.40;79.60;;;;;;5003077;28;89578;-42
2022/01/07 03:51:05;;;;;;;;;;;7.40;79.50;;;;;;5006491;28;87198;-43
2022/01/07 03:53:31;;;;;;;;;;;7.40;79.80;;;;;;5003469;28;87987;-43
2022/01/07 03:55:56;;;;;;;;;;;7.40;79.50;;;;;;5003094;28;87373;-42
2022/01/07 03:58:22;;;;;;;;;;;7.40;79.60;;;;;;5003074;28;88989;-43
2022/01/07 04:00:47;;;;;;;;;;;7.40;79.60;;;;;;5002079;28;90380;-42
2022/01/07 04:03:14;;;;;;;;;;;7.40;79.40;;;;;;5003069;28;87111;-43
2022/01/07 04:05:40;;;;;;;;;;;7.40;79.50;;;;;;5003153;28;88814;-43
2022/01/07 04:08:06;;;;;;;;;;;7.40;79.50;;;;;;5002546;28;89716;-42
2022/01/07 04:10:31;;;;;;;;;;;7.40;79.40;;;;;;5002745;28;86920;-43
2022/01/07 04:12:57;;;;;;;;;;;7.30;79.40;;;;;;5005439;28;88667;-42
2022/01/07 04:15:23;;;;;;;;;;;7.30;79.40;;;;;;5003216;28;87173;-43
2022/01/07 04:17:50;;;;;;;;;;;7.30;79.40;;;;;;5003510;28;89132;-42
2022/01/07 04:20:17;;;;;;;;;;;7.30;79.30;;;;;;5002328;28;89219;-43
2022/01/07 04:22:43;;;;;;;;;;;7.30;79.20;;;;;;5002938;28;87154;-43
2022/01/07 04:25:12;;;;;;;;;;;7.30;79.40;;;;;;5001998;28;88569;-42
2022/01/07 04:27:38;;;;;;;;;;;7.30;79.40;;;;;;5002379;28;89329;-42
2022/01/07 04:30:04;;;;;;;;;;;7.20;79.50;;;;;;5002792;28;87127;-43
2022/01/07 04:32:30;;;;;;;;;;;7.20;79.60;;;;;;5005298;28;87816;-43
2022/01/07 04:34:55;;;;;;;;;;;7.20;79.60;;;;;;5003001;28;86863;-42
2022/01/07 04:37:21;;;;;;;;;;;7.20;79.70;;;;;;5002642;28;88997;-43
2022/01/07 04:39:46;;;;;;;;;;;7.20;79.60;;;;;;5001998;28;89648;-43
2022/01/07 04:42:12;;;;;;;;;;;7.20;79.60;;;;;;5002973;28;86440;-43
2022/01/07 04:44:42;;;;;;;;;;;7.20;79.50;;;;;;5002890;28;86976;-42
2022/01/07 04:47:08;;;;;;;;;;;7.20;79.60;;;;;;5002138;28;89180;-43
2022/01/07 04:49:34;;;;;;;;;;;7.20;79.50;;;;;;5001896;28;87956;-43
2022/01/07 04:51:59;;;;;;;;;;;7.20;79.60;;;;;;5002561;28;89403;-43
2022/01/07 04:54:25;;;;;;;;;;;7.10;79.60;;;;;;5004640;28;89827;-42
2022/01/07 04:56:50;;;;;;;;;;;7.20;79.60;;;;;;5002506;28;88827;-43
2022/01/07 04:59:16;;;;;;;;;;;7.20;79.60;;;;;;5003912;28;88180;-43
2022/01/07 05:01:41;;;;;;;;;;;7.10;79.50;;;;;;5006001;28;87717;-43
2022/01/07 05:04:07;;;;;;;;;;;7.10;79.70;;;;;;5005955;28;87486;-42
2022/01/07 05:08:58;;;;;;;;;;;7.10;79.60;;;;;;5006029;28;86974;-43
2022/01/07 05:11:23;;;;;;;;;;;7.10;79.60;;;;;;5005227;28;88861;-43
2022/01/07 05:13:49;;;;;;;;;;;7.10;79.60;;;;;;5004685;28;90452;-42
2022/01/07 05:16:14;;;;;;;;;;;7.00;79.60;;;;;;5008285;28;87077;-43
2022/01/07 05:18:40;;;;;;;;;;;7.00;79.70;;;;;;5005077;28;89620;-43
2022/01/07 05:21:05;;;;;;;;;;;7.00;79.70;;;;;;5005366;28;87253;-43
2022/01/07 05:23:31;;;;;;;;;;;7.00;79.70;;;;;;5005383;28;88891;-42
2022/01/07 05:25:57;;;;;;;;;;;7.00;79.60;;;;;;5004339;28;88970;-42
2022/01/07 05:28:22;;;;;;;;;;;7.00;79.70;;;;;;5005712;28;86972;-43
2022/01/07 05:30:48;;;;;;;;;;;7.00;79.80;;;;;;5006071;28;88731;-42
2022/01/07 05:33:13;;;;;;;;;;;7.00;79.70;;;;;;5004994;28;89968;-43
2022/01/07 05:35:39;;;;;;;;;;;7.00;79.60;;;;;;5005426;28;87170;-43
2022/01/07 05:38:04;;;;;;;;;;;6.90;79.60;;;;;;5007248;28;88990;-42
2022/01/07 05:40:30;;;;;;;;;;;6.90;79.60;;;;;;5004812;28;87058;-43
2022/01/07 05:42:55;;;;;;;;;;;6.90;79.70;;;;;;5005037;28;88644;-42
2022/01/07 05:45:21;;;;;;;;;;;6.90;79.60;;;;;;5004744;28;89676;-43
2022/01/07 05:47:46;;;;;;;;;;;6.90;79.50;;;;;;5004954;28;87150;-43
2022/01/07 05:50:13;;;;;;;;;;;6.90;79.60;;;;;;5004954;28;88862;-43
2022/01/07 05:52:38;;;;;;;;;;;6.90;79.60;;;;;;5004735;28;89667;-42
2022/01/07 05:55:04;;;;;;;;;;;6.80;79.60;;;;;;5005210;28;86393;-43
2022/01/07 05:57:30;;;;;;;;;;;6.80;79.50;;;;;;5005005;28;87965;-42
2022/01/07 05:59:55;;;;;;;;;;;6.80;79.50;;;;;;5007412;28;90154;-42
2022/01/07 06:02:21;;;;;;;;;;;6.80;79.70;;;;;;5004440;28;87912;-42
2022/01/07 06:04:46;;;;;;;;;;;6.80;79.60;;;;;;5004561;28;90188;-42
2022/01/07 06:07:12;;;;;;;;;;;6.80;79.60;;;;;;5005082;28;86985;-42
2022/01/07 06:09:37;;;;;;;;;;;6.80;79.60;;;;;;5004513;28;88249;-42
2022/01/07 06:12:03;;;;;;;;;;;6.80;79.40;;;;;;5004251;28;89805;-42
2022/01/07 06:14:28;;;;;;;;;;;6.80;79.40;;;;;;5004718;28;87057;-42
2022/01/07 06:16:54;;;;;;;;;;;6.80;79.40;;;;;;5004526;28;87852;-42
2022/01/07 06:19:20;;;;;;;;;;;6.80;79.40;;;;;;5004571;28;88586;-42
2022/01/07 06:21:46;;;;;;;;;;;6.70;79.30;;;;;;5007400;28;87110;-42
2022/01/07 06:24:11;;;;;;;;;;;6.80;79.20;;;;;;5004083;28;89008;-42
2022/01/07 06:26:38;;;;;;;;;;;6.80;79.30;;;;;;5003236;28;88162;-42
2022/01/07 06:29:04;;;;;;;;;;;6.80;79.40;;;;;;5004378;28;89588;-42
2022/01/07 06:31:29;;;;;;;;;;;6.70;79.50;;;;;;5003899;28;89874;-42
2022/01/07 06:33:55;;;;;;;;;;;6.70;79.60;;;;;;5004549;28;87772;-42
2022/01/07 06:36:20;;;;;;;;;;;6.70;79.40;;;;;;5004192;28;88660;-42
2022/01/07 06:38:46;;;;;;;;;;;6.70;79.40;;;;;;5003798;28;89360;-42
2022/01/07 06:41:11;;;;;;;;;;;6.70;79.40;;;;;;5006808;28;87236;-42
2022/01/07 06:43:37;;;;;;;;;;;6.70;79.50;;;;;;5004714;28;87328;-43
2022/01/07 06:46:03;;;;;;;;;;;6.70;79.50;;;;;;5004434;28;87113;-42
2022/01/07 06:48:28;;;;;;;;;;;6.70;79.60;;;;;;5004328;28;89301;-42
2022/01/07 06:50:54;;;;;;;;;;;6.70;79.40;;;;;;5003010;28;89438;-43
2022/01/07 06:53:19;;;;;;;;;;;6.70;79.60;;;;;;5004065;28;87203;-42
2022/01/07 06:55:45;;;;;;;;;;;6.70;79.60;;;;;;5003787;28;89024;-42
2022/01/07 06:58:10;;;;;;;;;;;6.60;79.60;;;;;;5003486;28;88574;-42
2022/01/07 07:00:36;;;;;;;;;;;6.60;79.70;;;;;;5004070;28;87179;-42
2022/01/07 07:03:01;;;;;;;;;;;6.60;79.70;;;;;;5006347;28;88338;-42
2022/01/07 07:05:27;;;;;;;;;;;6.70;79.70;;;;;;5004254;28;87207;-42
2022/01/07 07:07:52;;;;;;;;;;;6.60;79.80;;;;;;5004247;28;89335;-42
2022/01/07 07:10:18;;;;;;;;;;;6.60;79.70;;;;;;5003242;28;90272;-42
2022/01/07 07:12:43;;;;;;;;;;;6.60;79.70;;;;;;5003913;28;87193;-42
2022/01/07 07:15:09;;;;;;;;;;;6.60;79.60;;;;;;5003483;28;87899;-42
2022/01/07 07:17:35;;;;;;;;;;;6.60;79.60;;;;;;5003619;28;88484;-42
2022/01/07 07:20:02;;;;;;;;;;;6.60;79.50;;;;;;5003710;28;87328;-42
2022/01/07 07:22:28;;;;;;;;;;;6.60;79.70;;;;;;5002769;28;88810;-42
2022/01/07 07:24:54;;;;;;;;;;;6.60;79.70;;;;;;5006037;28;89296;-42
2022/01/07 07:27:19;;;;;;;;;;;6.60;79.80;;;;;;5003760;28;87109;-42
2022/01/07 07:29:45;;;;;;;;;;;6.60;79.70;;;;;;5003346;28;89517;-42
2022/01/07 07:32:11;;;;;;;;;;;6.60;79.60;;;;;;5003858;28;86396;-42
2022/01/07 07:37:07;;;;;;;;;;;6.60;79.70;;;;;;5003277;28;87844;-42
2022/01/07 07:39:33;;;;;;;;;;;6.50;79.60;;;;;;5002527;28;88066;-42
2022/01/07 07:41:58;;;;;;;;;;;6.50;79.70;;;;;;5003639;28;89638;-42
2022/01/07 07:44:24;;;;;;;;;;;6.50;79.70;;;;;;5003005;28;89731;-42
2022/01/07 07:46:49;;;;;;;;;;;6.60;79.60;;;;;;5006326;28;87076;-42
2022/01/07 07:49:15;;;;;;;;;;;6.50;79.70;;;;;;5003199;28;89588;-42
2022/01/07 07:51:41;;;;;;;;;;;6.60;79.60;;;;;;5003214;28;87008;-42
2022/01/07 07:54:07;;;;;;;;;;;6.60;79.60;;;;;;5003520;28;87272;-42
2022/01/07 07:56:33;;;;;;;;;;;6.50;79.60;;;;;;5003337;28;88664;-42
2022/01/07 07:58:59;;;;;;;;;;;6.50;79.60;;;;;;5003402;28;87193;-42
2022/01/07 08:01:24;;;;;;;;;;;6.50;79.60;;;;;;5003049;28;89146;-42
2022/01/07 08:03:50;;;;;;;;;;;6.50;79.60;;;;;;5002083;28;90547;-45
2022/01/07 08:06:16;;;;;;;;;;;6.50;79.60;;;;;;5002885;28;86897;-42
2022/01/07 08:08:41;;;;;;;;;;;6.40;79.60;;;;;;5005601;28;88092;-42
2022/01/07 08:11:10;;;;;;;;;;;6.40;79.50;;;;;;5001611;28;87251;-42
2022/01/07 08:16:20;;;;;;;;;;;6.50;79.50;;;;;;5002838;28;87431;-42
2022/01/07 08:18:49;;;;;;;;;;;6.50;79.50;;;;;;5003040;28;87226;-42
2022/01/07 08:21:15;;;;;;;;;;;6.50;79.40;;;;;;5003395;28;88968;-42
2022/01/07 08:23:41;;;;;;;;;;;6.50;79.50;;;;;;5002426;28;89557;-42
2022/01/07 08:26:11;;;;;;;;;;;6.50;79.60;;;;;;5002307;28;87153;-42
2022/01/07 08:28:44;;;;;;;;;;;6.40;79.50;;;;;;5002064;28;89160;-42
2022/01/07 08:36:20;;;;;;;;;;;6.50;79.40;;;;;;5003536;28;87251;-42
2022/01/07 08:38:47;;;;;;;;;;;6.40;79.40;;;;;;5006361;28;87111;-42
2022/01/07 08:41:13;;;;;;;;;;;6.40;79.30;;;;;;5006105;28;89162;-42
2022/01/07 08:43:39;;;;;;;;;;;6.40;79.20;;;;;;5006046;28;87952;-42
2022/01/07 08:46:05;;;;;;;;;;;6.40;79.30;;;;;;5006494;28;86448;-42
2022/01/07 08:48:31;;;;;;;;;;;6.40;79.30;;;;;;5006017;28;87000;-42
2022/01/07 08:50:56;;;;;;;;;;;6.30;79.60;;;;;;5008351;28;91257;-43
2022/01/07 08:53:22;;;;;;;;;;;6.40;79.40;;;;;;5005400;28;88973;-42
2022/01/07 08:55:48;;;;;;;;;;;6.30;79.50;;;;;;5005826;28;87064;-42
2022/01/07 08:58:32;;;;;;;;;;;6.40;79.50;;;;;;5006037;28;87131;-42
2022/01/07 09:00:58;;;;;;;;;;;6.40;79.60;;;;;;5005706;28;88824;-42
2022/01/07 09:03:23;;;;;;;;;;;6.40;79.50;;;;;;5005338;28;89379;-42
2022/01/07 09:05:49;;;;;;;;;;;6.40;79.40;;;;;;5006072;28;86995;-42
2022/01/07 09:08:14;;;;;;;;;;;6.40;79.50;;;;;;5005656;28;89082;-42
2022/01/07 09:10:40;;;;;;;;;;;6.40;79.50;;;;;;5005954;28;87848;-42
2022/01/07 09:13:06;;;;;;;;;;;6.40;79.50;;;;;;5008561;28;87093;-42
2022/01/07 09:15:32;;;;;;;;;;;6.40;79.40;;;;;;5005122;28;89628;-42
2022/01/07 09:17:57;;;;;;;;;;;6.40;79.30;;;;;;5004566;28;88060;-42
2022/01/07 09:20:23;;;;;;;;;;;6.30;79.50;;;;;;5004359;28;90415;-42
2022/01/07 09:22:49;;;;;;;;;;;6.40;80.10;;;;;;5005145;28;89601;-42
2022/01/07 09:25:14;;;;;;;;;;;6.30;79.50;;;;;;5005318;28;87204;-43
2022/01/07 09:27:41;;;;;;;;;;;6.40;79.30;;;;;;5005448;28;89257;-42
2022/01/07 09:30:07;;;;;;;;;;;6.40;79.40;;;;;;5005175;28;88989;-42
2022/01/07 09:32:33;;;;;;;;;;;6.40;79.30;;;;;;5005144;28;87062;-42
2022/01/07 09:34:58;;;;;;;;;;;6.40;79.30;;;;;;5008666;28;89109;-42
2022/01/07 09:37:24;;;;;;;;;;;6.40;79.40;;;;;;5005282;28;87148;-42
2022/01/07 09:39:49;;;;;;;;;;;6.40;79.40;;;;;;5005226;28;88899;-42
2022/01/07 09:42:15;;;;;;;;;;;6.40;79.40;;;;;;5004086;28;90424;-42
2022/01/07 09:44:42;;;;;;;;;;;6.30;79.30;;;;;;5004414;28;87060;-42
2022/01/07 09:47:11;;;;;;;;;;;6.30;79.30;;;;;;5004968;28;88284;-41
2022/01/07 09:49:40;;;;;;;;;;;6.40;79.40;;;;;;5004620;28;89210;-42
2022/01/07 09:52:05;;;;;;;;;;;6.40;79.50;;;;;;5004981;28;87251;-42
2022/01/07 09:54:35;;;;;;;;;;;6.40;79.30;;;;;;5005085;28;89086;-42
2022/01/07 09:57:01;;;;;;;;;;;6.40;79.30;;;;;;5007419;28;89443;-42
2022/01/07 09:59:27;;;;;;;;;;;6.30;79.30;;;;;;5005353;28;88763;-42
2022/01/07 10:02:10;;;;;;;;;;;6.40;79.20;;;;;;5004528;28;88698;-42
2022/01/07 10:04:37;;;;;;;;;;;6.40;79.20;;;;;;5004860;28;87059;-42
2022/01/07 10:07:10;;;;;;;;;;;6.40;79.20;;;;;;5004281;28;87970;-42
2022/01/07 10:09:37;;;;;;;;;;;6.40;79.30;;;;;;5004510;28;89732;-42
2022/01/07 10:12:02;;;;;;;;;;;6.30;79.50;;;;;;5004761;28;87188;-42
2022/01/07 10:14:30;;;;;;;;;;;6.40;79.40;;;;;;5004326;28;89203;-42
2022/01/07 10:16:56;;;;;;;;;;;6.40;79.30;;;;;;5004314;28;89461;-42
2022/01/07 10:19:37;;;;;;;;;;;6.40;79.20;;;;;;5007444;28;86854;-42
2022/01/07 10:22:21;;;;;;;;;;;6.40;79.20;;;;;;5004209;28;89659;-42
2022/01/07 10:24:54;;;;;;;;;;;6.40;79.20;;;;;;5005173;28;86489;-42
2022/01/07 10:27:20;;;;;;;;;;;6.40;79.20;;;;;;5004425;28;88189;-42
2022/01/07 10:29:45;;;;;;;;;;;6.40;79.20;;;;;;5004008;28;89795;-42
2022/01/07 10:32:21;;;;;;;;;;;6.40;79.20;;;;;;5003744;28;88066;-42
2022/01/07 10:35:06;;;;;;;;;;;6.40;79.60;;;;;;5004439;28;89779;-42
2022/01/07 10:37:33;;;;;;;;;;;6.40;79.30;;;;;;5004038;28;89896;-42
2022/01/07 10:39:58;;;;;;;;;;;6.40;79.20;;;;;;5004560;28;87190;-42
2022/01/07 10:42:24;;;;;;;;;;;6.40;79.30;;;;;;5006837;28;89047;-42
2022/01/07 10:45:00;;;;;;;;;;;6.40;79.30;;;;;;5004353;28;87055;-42
2022/01/07 10:47:26;;;;;;;;;;;6.40;79.30;;;;;;5004236;28;88693;-42
2022/01/07 10:50:11;;;;;;;;;;;6.40;79.20;;;;;;5004037;28;88730;-42
2022/01/07 10:52:37;;;;;;;;;;;6.40;79.20;;;;;;5004120;28;87092;-42
2022/01/07 10:55:13;;;;;;;;;;;6.40;79.20;;;;;;5004112;28;88990;-42
2022/01/07 10:57:44;;;;;;;;;;;6.40;79.20;;;;;;5001815;28;90420;-42
2022/01/07 11:00:16;;;;;;;;;;;6.40;79.00;;;;;;5003864;28;87208;-42
2022/01/07 11:02:42;;;;;;;;;;;6.40;79.00;;;;;;5006451;28;88712;-42
2022/01/07 11:05:08;;;;;;;;;;;6.30;79.10;;;;;;5003983;28;87040;-42
2022/01/07 11:07:35;;;;;;;;;;;6.40;79.20;;;;;;5003878;28;89028;-42
2022/01/07 11:10:01;;;;;;;;;;;6.40;79.00;;;;;;5003543;28;89229;-42
2022/01/07 11:12:28;;;;;;;;;;;6.30;79.00;;;;;;5003783;28;87024;-42
2022/01/07 11:14:54;;;;;;;;;;;6.40;78.90;;;;;;5004298;28;89026;-42
2022/01/07 11:17:23;;;;;;;;;;;6.40;79.10;;;;;;5003743;28;87307;-42
2022/01/07 11:19:50;;;;;;;;;;;6.30;79.80;;;;;;5003573;28;87164;-42
2022/01/07 11:22:16;;;;;;;;;;;6.30;79.20;;;;;;5002939;28;88817;-42
2022/01/07 11:24:42;;;;;;;;;;;6.30;79.10;;;;;;5006251;28;89517;-42
2022/01/07 11:27:08;;;;;;;;;;;6.30;79.20;;;;;;5002947;28;88837;-42
2022/01/07 11:29:37;;;;;;;;;;;6.30;79.20;;;;;;5003000;28;89485;-42
2022/01/07 11:32:21;;;;;;;;;;;6.30;79.30;;;;;;5003683;28;86876;-42
2022/01/07 11:34:47;;;;;;;;;;;6.30;79.40;;;;;;5003470;28;88903;-42
2022/01/07 11:37:32;;;;;;;;;;;6.30;79.30;;;;;;5002884;28;89791;-42
2022/01/07 11:39:58;;;;;;;;;;;6.30;79.40;;;;;;5003842;28;86149;-42
2022/01/07 11:45:30;;;;;;;;;;;6.30;79.50;;;;;;5001882;28;87319;-42
2022/01/07 11:47:57;;;;;;;;;;;6.30;79.60;;;;;;5005623;28;88090;-42
2022/01/07 11:50:23;;;;;;;;;;;6.20;79.50;;;;;;5003087;28;88441;-42
2022/01/07 11:52:58;;;;;;;;;;;6.20;79.50;;;;;;5003284;28;87052;-42
2022/01/07 11:55:35;;;;;;;;;;;6.20;79.40;;;;;;5003219;28;88899;-42
2022/01/07 11:58:03;;;;;;;;;;;6.20;79.70;;;;;;5002857;28;89381;-42
2022/01/07 12:00:48;;;;;;;;;;;6.20;79.70;;;;;;5003062;28;87115;-42
2022/01/07 12:03:13;;;;;;;;;;;6.20;79.60;;;;;;5002986;28;88337;-42
2022/01/07 12:05:39;;;;;;;;;;;6.20;79.60;;;;;;5003326;28;88868;-42
2022/01/07 12:08:04;;;;;;;;;;;6.20;79.60;;;;;;5004411;28;87249;-42
2022/01/07 12:10:30;;;;;;;;;;;6.20;79.70;;;;;;5009286;28;89103;-42
2022/01/07 12:13:01;;;;;;;;;;;6.20;79.70;;;;;;5005971;28;88024;-41
2022/01/07 12:15:27;;;;;;;;;;;6.20;79.50;;;;;;5006581;28;89708;-42
2022/01/07 12:17:53;;;;;;;;;;;6.10;79.50;;;;;;5006056;28;89347;-42
2022/01/07 12:20:37;;;;;;;;;;;6.10;79.70;;;;;;5006219;28;87242;-42
2022/01/07 12:23:02;;;;;;;;;;;6.20;79.70;;;;;;5006709;28;87370;-42
2022/01/07 12:25:28;;;;;;;;;;;6.10;79.80;;;;;;5005592;28;89403;-42
2022/01/07 12:28:01;;;;;;;;;;;6.10;79.80;;;;;;5006404;28;86981;-42
2022/01/07 12:30:27;;;;;;;;;;;6.10;79.70;;;;;;5006913;28;88805;-42
2022/01/07 12:32:56;;;;;;;;;;;6.10;79.80;;;;;;5008663;28;89281;-42
2022/01/07 12:35:22;;;;;;;;;;;6.10;79.80;;;;;;5006276;28;89140;-42
2022/01/07 12:37:47;;;;;;;;;;;6.10;79.80;;;;;;5005019;28;90995;-41
2022/01/07 12:40:13;;;;;;;;;;;6.10;80.10;;;;;;5006297;28;87115;-42
2022/01/07 12:42:41;;;;;;;;;;;6.10;80.20;;;;;;5004730;28;90898;-42
2022/01/07 12:45:07;;;;;;;;;;;6.10;80.20;;;;;;5005756;28;89458;-42
2022/01/07 12:47:32;;;;;;;;;;;6.10;80.30;;;;;;5006047;28;87098;-42
2022/01/07 12:50:02;;;;;;;;;;;6.10;80.60;;;;;;5006326;28;87420;-42
2022/01/07 12:52:32;;;;;;;;;;;6.00;80.60;;;;;;5005566;28;91444;-42
2022/01/07 12:55:09;;;;;;;;;;;6.00;80.50;;;;;;5009115;28;86125;-41
2022/01/07 12:57:37;;;;;;;;;;;6.00;80.80;;;;;;5005423;28;89586;-42
2022/01/07 13:00:08;;;;;;;;;;;6.00;80.50;;;;;;5005861;28;87118;-42
2022/01/07 13:02:33;;;;;;;;;;;6.10;80.30;;;;;;5005425;28;88795;-42
2022/01/07 13:05:14;;;;;;;;;;;6.10;80.20;;;;;;5005539;28;89520;-42
2022/01/07 13:07:41;;;;;;;;;;;6.10;80.20;;;;;;5005599;28;87131;-42
2022/01/07 13:10:06;;;;;;;;;;;6.10;80.30;;;;;;5005466;28;88812;-42
2022/01/07 13:12:32;;;;;;;;;;;6.10;80.10;;;;;;5005308;28;89862;-42
2022/01/07 13:14:57;;;;;;;;;;;6.10;80.10;;;;;;5008466;28;87142;-42
2022/01/07 13:17:24;;;;;;;;;;;6.10;80.10;;;;;;5005217;28;89412;-42
2022/01/07 13:19:50;;;;;;;;;;;6.10;80.10;;;;;;5004974;28;86383;-42
2022/01/07 13:22:16;;;;;;;;;;;6.10;80.20;;;;;;5005402;28;88026;-42
2022/01/07 13:24:42;;;;;;;;;;;6.10;80.10;;;;;;5004868;28;89234;-42
2022/01/07 13:27:07;;;;;;;;;;;6.10;80.20;;;;;;5004370;28;88165;-43
2022/01/07 13:29:33;;;;;;;;;;;6.10;79.90;;;;;;5005552;28;88380;-45
2022/01/07 13:32:02;;;;;;;;;;;6.10;77.20;;;;;;5004809;28;89254;-45
2022/01/07 13:34:32;;;;;;;;;;;6.10;75.40;;;;;;5005291;28;87194;-45
2022/01/07 13:37:02;;;;;;;;;;;6.10;74.80;;;;;;5007787;28;88916;-44
2022/01/07 13:39:36;;;;;;;;;;;6.00;74.80;;;;;;5005127;28;87168;-45
2022/01/07 13:42:03;;;;;;;;;;;6.10;74.70;;;;;;5005132;28;88870;-43
2022/01/07 13:44:30;;;;;;;;;;;6.00;72.60;;;;;;5005349;28;88690;-60
2022/01/07 13:46:59;;;;;;;;;;;6.00;72.80;;;;;;5005102;28;87234;-46
2022/01/07 13:49:25;;;;;;;;;;;6.00;73.80;;;;;;5005026;28;88713;-48
2022/01/07 13:51:51;;;;;;;;;;;6.10;72.50;;;;;;5003859;28;90517;-44
2022/01/07 13:54:25;;;;;;;;;;;6.00;71.20;;;;;;5005019;28;87114;-43
2022/01/07 13:56:59;;;;;;;;;;;6.00;72.30;;;;;;5005303;28;87078;-43
2022/01/07 13:59:25;;;;;;;;;;;5.90;70.60;;;;;;5007519;28;89055;-43
2022/01/07 14:01:56;;;;;;;;;;;5.90;70.60;;;;;;5004789;28;88791;-42
2022/01/07 14:04:38;;;;;;;;;;;5.90;71.70;;;;;;5004392;28;89263;-43
2022/01/07 14:07:19;;;;;;;;;;;5.90;71.30;;;;;;5004944;28;86996;-40
2022/01/07 14:09:59;;;;;;;;;;;5.90;70.80;;;;;;5005233;28;88878;-42
2022/01/07 14:12:24;;;;;;;;;;;5.90;71.60;;;;;;5004431;28;89615;-43
2022/01/07 14:14:50;;;;;;;;;;;5.90;71.60;;;;;;5004496;28;86886;-42
2022/01/07 14:17:15;;;;;;;;;;;5.90;70.60;;;;;;5004018;28;88146;-40
2022/01/07 14:19:54;;;;;;;;;;;5.90;70.80;;;;;;5004386;28;89819;-43
2022/01/07 14:22:19;;;;;;;;;;;5.80;70.10;;;;;;5007260;28;87139;-42
2022/01/07 14:24:45;;;;;;;;;;;5.80;70.60;;;;;;5004213;28;90376;-42
2022/01/07 14:27:11;;;;;;;;;;;5.70;71.30;;;;;;5004176;28;87144;-43
2022/01/07 14:29:36;;;;;;;;;;;5.70;69.90;;;;;;5004469;28;87914;-46
2022/01/07 14:32:02;;;;;;;;;;;5.70;70.50;;;;;;5003816;28;89872;-42
2022/01/07 14:34:27;;;;;;;;;;;5.80;71.20;;;;;;5005068;28;86311;-42
2022/01/07 14:36:53;;;;;;;;;;;5.70;71.00;;;;;;5004274;28;88192;-42
2022/01/07 14:39:20;;;;;;;;;;;5.70;71.40;;;;;;5003988;28;89090;-42
2022/01/07 14:41:45;;;;;;;;;;;5.70;71.20;;;;;;5003846;28;88208;-42
2022/01/07 14:44:11;;;;;;;;;;;5.60;71.30;;;;;;5006650;28;89702;-44